createdAt,value
2023-03-17T00:01:51.391Z,4.23
2023-03-17T00:04:19.403Z,4.50
2023-03-17T00:06:46.610Z,3.80
2023-03-17T00:09:14.868Z,5.13
2023-03-17T00:11:42.691Z,4.60
2023-03-17T00:14:09.369Z,6.50
2023-03-17T00:16:45.478Z,4.37
2023-03-17T00:19:16.620Z,5.13
2023-03-17T00:21:43.591Z,4.30
2023-03-17T00:24:15.103Z,5.03
2023-03-17T00:26:42.559Z,3.80
2023-03-17T00:29:09.650Z,5.30
2023-03-17T00:31:36.991Z,4.60
2023-03-17T00:34:03.624Z,3.77
2023-03-17T00:36:34.444Z,3.23
2023-03-17T00:39:01.523Z,3.60
2023-03-17T00:41:29.452Z,3.53
2023-03-17T00:43:56.244Z,3.90
2023-03-17T00:46:28.967Z,4.93
2023-03-17T00:48:55.557Z,4.50
2023-03-17T00:51:23.349Z,4.83
2023-03-17T00:53:50.716Z,3.47
2023-03-17T00:56:20.777Z,4.67
2023-03-17T00:58:48.474Z,3.50
2023-03-17T01:01:15.077Z,4.90
2023-03-17T01:03:41.639Z,3.30
2023-03-17T01:06:11.731Z,4.70
2023-03-17T01:08:40.610Z,4.50
2023-03-17T01:11:07.380Z,3.07
2023-03-17T01:13:34.345Z,3.50
2023-03-17T01:16:01.225Z,3.43
2023-03-17T01:18:27.906Z,3.70
2023-03-17T01:20:54.604Z,3.50
2023-03-17T01:23:22.144Z,3.90
2023-03-17T01:25:49.230Z,3.70
2023-03-17T01:28:18.159Z,4.63
2023-03-17T01:30:45.266Z,2.90
2023-03-17T01:33:13.250Z,3.63
2023-03-17T01:35:41.391Z,3.20
2023-03-17T01:38:08.951Z,2.97
2023-03-17T01:40:45.312Z,3.40
2023-03-17T01:43:11.669Z,4.27
2023-03-17T01:46:16.095Z,4.17
2023-03-17T01:49:12.738Z,3.90
2023-03-17T01:51:46.588Z,3.23
2023-03-17T01:54:22.428Z,4.77
2023-03-17T01:56:52.349Z,2.77
2023-03-17T01:59:23.744Z,3.70
2023-03-17T02:01:54.641Z,3.47
2023-03-17T02:04:21.867Z,3.97
2023-03-17T02:06:57.895Z,3.00
2023-03-17T02:09:25.487Z,3.37
2023-03-17T02:11:53.237Z,3.40
2023-03-17T02:14:20.472Z,4.00
2023-03-17T02:16:47.013Z,3.23
2023-03-17T02:19:13.651Z,4.27
2023-03-17T02:21:46.600Z,3.97
2023-03-17T02:24:30.804Z,3.50
2023-03-17T02:27:02.694Z,2.87
2023-03-17T02:29:34.906Z,4.20
2023-03-17T02:32:02.519Z,3.50
2023-03-17T02:34:29.015Z,4.17
2023-03-17T02:36:55.706Z,3.20
2023-03-17T02:39:22.393Z,3.77
2023-03-17T02:41:48.894Z,2.37
2023-03-17T02:44:16.148Z,4.60
2023-03-17T02:46:42.633Z,4.43
2023-03-17T02:49:09.820Z,4.00
2023-03-17T02:51:36.641Z,4.27
2023-03-17T02:54:03.709Z,4.77
2023-03-17T02:56:30.998Z,3.80
2023-03-17T02:58:57.463Z,2.53
2023-03-17T03:01:24.125Z,3.60
2023-03-17T03:03:50.730Z,3.33
2023-03-17T03:06:17.320Z,4.00
2023-03-17T03:08:43.841Z,2.57
2023-03-17T03:11:10.773Z,4.00
2023-03-17T03:13:37.656Z,3.23
2023-03-17T03:16:04.743Z,3.27
2023-03-17T03:18:31.323Z,3.23
2023-03-17T03:20:57.767Z,2.20
2023-03-17T03:23:24.393Z,5.03
2023-03-17T03:25:51.472Z,2.40
2023-03-17T03:28:18.510Z,4.27
2023-03-17T03:30:46.203Z,2.30
2023-03-17T03:33:14.395Z,3.00
2023-03-17T03:35:41.525Z,2.83
2023-03-17T03:38:08.709Z,3.50
2023-03-17T03:40:36.553Z,2.40
2023-03-17T03:43:13.034Z,2.93
2023-03-17T03:45:48.119Z,2.63
2023-03-17T03:48:14.568Z,3.30
2023-03-17T03:50:41.086Z,3.87
2023-03-17T03:53:07.666Z,3.30
2023-03-17T03:55:34.146Z,2.77
2023-03-17T03:58:00.702Z,2.20
2023-03-17T04:00:27.317Z,2.80
2023-03-17T04:02:53.846Z,3.00
2023-03-17T04:05:20.476Z,3.50
2023-03-17T04:07:47.936Z,3.67
2023-03-17T04:10:16.030Z,3.73
2023-03-17T04:12:43.645Z,3.63
2023-03-17T04:15:13.882Z,3.33
2023-03-17T04:17:41.205Z,2.60
2023-03-17T04:20:08.648Z,2.40
2023-03-17T04:22:35.161Z,3.10
2023-03-17T04:25:01.610Z,2.83
2023-03-17T04:27:28.390Z,2.20
2023-03-17T04:29:54.845Z,2.33
2023-03-17T04:32:21.865Z,2.83
2023-03-17T04:34:48.374Z,3.10
2023-03-17T04:37:14.825Z,3.47
2023-03-17T04:39:42.083Z,2.77
2023-03-17T04:42:08.598Z,2.93
2023-03-17T04:44:35.176Z,2.97
2023-03-17T04:47:01.644Z,3.07
2023-03-17T04:49:28.427Z,2.77
2023-03-17T04:51:54.936Z,2.60
2023-03-17T04:54:21.861Z,6.13
2023-03-17T04:56:48.325Z,3.03
2023-03-17T04:59:14.790Z,4.70
2023-03-17T05:01:41.212Z,2.47
2023-03-17T05:04:08.089Z,2.50
2023-03-17T05:06:34.684Z,2.67
2023-03-17T05:09:01.229Z,2.67
2023-03-17T05:11:27.681Z,2.60
2023-03-17T05:13:54.159Z,3.03
2023-03-17T05:16:22.045Z,4.43
2023-03-17T05:18:48.587Z,4.23
2023-03-17T05:21:15.615Z,3.47
2023-03-17T05:23:42.105Z,3.60
2023-03-17T05:26:08.614Z,2.73
2023-03-17T05:28:35.171Z,4.07
2023-03-17T05:31:02.136Z,2.73
2023-03-17T05:33:28.997Z,2.93
2023-03-17T05:35:55.633Z,3.00
2023-03-17T05:38:22.147Z,4.27
2023-03-17T05:40:52.687Z,3.80
2023-03-17T05:43:19.621Z,3.60
2023-03-17T05:45:47.290Z,3.07
2023-03-17T05:48:13.836Z,3.73
2023-03-17T05:50:41.686Z,3.00
2023-03-17T05:53:08.855Z,2.53
2023-03-17T05:55:35.309Z,2.77
2023-03-17T05:58:04.370Z,3.50
2023-03-17T06:00:31.032Z,3.93
2023-03-17T06:02:57.674Z,4.03
2023-03-17T06:05:24.120Z,4.00
2023-03-17T06:07:54.805Z,3.23
2023-03-17T06:10:23.779Z,3.90
2023-03-17T06:12:50.484Z,3.13
2023-03-17T06:15:17.259Z,4.23
2023-03-17T06:17:43.955Z,3.63
2023-03-17T06:20:11.717Z,4.30
2023-03-17T06:22:39.744Z,3.90
2023-03-17T06:25:10.195Z,3.60
2023-03-17T06:27:37.898Z,2.63
2023-03-17T06:30:09.493Z,3.47
2023-03-17T06:32:36.035Z,2.47
2023-03-17T06:35:05.279Z,3.20
2023-03-17T06:37:31.748Z,3.70
2023-03-17T06:39:58.448Z,3.60
2023-03-17T06:42:24.992Z,4.20
2023-03-17T06:44:52.632Z,3.57
2023-03-17T06:47:19.793Z,4.53
2023-03-17T06:49:46.521Z,3.80
2023-03-17T06:52:13.554Z,4.10
2023-03-17T06:54:41.260Z,3.83
2023-03-17T06:57:07.977Z,4.27
2023-03-17T06:59:34.455Z,4.63
2023-03-17T07:02:01.085Z,3.87
2023-03-17T07:04:27.610Z,5.37
2023-03-17T07:06:54.477Z,3.37
2023-03-17T07:09:20.966Z,4.87
2023-03-17T07:11:47.486Z,3.70
2023-03-17T07:14:13.936Z,6.17
2023-03-17T07:16:40.541Z,3.87
2023-03-17T07:19:07.323Z,3.93
2023-03-17T07:21:33.856Z,4.13
2023-03-17T07:24:00.313Z,4.80
2023-03-17T07:26:27.289Z,4.53
2023-03-17T07:28:53.794Z,3.40
2023-03-17T07:31:20.343Z,4.50
2023-03-17T07:33:47.011Z,3.60
2023-03-17T07:36:13.500Z,3.70
2023-03-17T07:38:39.922Z,2.80
2023-03-17T07:41:09.955Z,3.27
2023-03-17T07:43:37.523Z,4.20
2023-03-17T07:46:06.312Z,3.67
2023-03-17T07:48:33.467Z,3.33
2023-03-17T07:51:00.502Z,3.63
2023-03-17T07:53:26.942Z,3.37
2023-03-17T07:55:53.335Z,3.40
2023-03-17T07:58:20.285Z,3.17
2023-03-17T08:00:48.323Z,4.03
2023-03-17T08:03:14.892Z,4.20
2023-03-17T08:05:41.460Z,4.33
2023-03-17T08:08:07.984Z,3.30
2023-03-17T08:10:35.117Z,2.60
2023-03-17T08:13:01.851Z,3.67
2023-03-17T08:15:28.490Z,3.17
2023-03-17T08:17:54.971Z,3.13
2023-03-17T08:20:21.804Z,3.43
2023-03-17T08:22:48.260Z,3.63
2023-03-17T08:25:14.915Z,4.50
2023-03-17T08:27:42.291Z,4.13
2023-03-17T08:30:09.811Z,3.37
2023-03-17T08:32:36.903Z,3.27
2023-03-17T08:35:05.056Z,3.40
2023-03-17T08:37:32.305Z,3.30
2023-03-17T08:39:58.986Z,3.70
2023-03-17T08:42:25.945Z,3.07
2023-03-17T08:44:52.470Z,4.40
2023-03-17T08:47:19.050Z,3.90
2023-03-17T08:49:45.531Z,4.17
2023-03-17T08:52:12.271Z,3.20
2023-03-17T08:54:38.965Z,3.30
2023-03-17T08:57:05.593Z,3.23
2023-03-17T08:59:33.588Z,3.80
2023-03-17T09:02:00.624Z,3.57
2023-03-17T09:04:28.032Z,3.50
2023-03-17T09:07:03.442Z,4.23
2023-03-17T09:09:31.190Z,3.70
2023-03-17T09:11:58.397Z,3.10
2023-03-17T09:14:25.054Z,3.53
2023-03-17T09:16:52.398Z,3.17
2023-03-17T09:19:19.191Z,3.77
2023-03-17T09:21:46.134Z,3.13
2023-03-17T09:24:13.698Z,3.40
2023-03-17T09:26:40.173Z,3.97
2023-03-17T09:29:07.266Z,3.70
2023-03-17T09:31:36.454Z,3.50
2023-03-17T09:34:06.130Z,3.30
2023-03-17T09:36:33.579Z,3.53
2023-03-17T09:39:00.986Z,3.47
2023-03-17T09:41:27.401Z,3.97
2023-03-17T09:44:15.813Z,3.30
2023-03-17T09:46:53.533Z,3.40
2023-03-17T09:49:25.123Z,3.40
2023-03-17T09:51:52.490Z,3.90
2023-03-17T09:54:26.242Z,3.33
2023-03-17T09:57:02.100Z,3.87
2023-03-17T09:59:38.764Z,3.00
2023-03-17T10:02:23.853Z,3.53
2023-03-17T10:04:50.827Z,3.83
2023-03-17T10:07:26.047Z,3.70
2023-03-17T10:10:03.442Z,3.03
2023-03-17T10:12:41.741Z,3.10
2023-03-17T10:15:41.141Z,3.00
2023-03-17T10:18:14.599Z,3.30
2023-03-17T10:20:53.372Z,3.50
2023-03-17T10:23:29.685Z,3.97
2023-03-17T10:26:00.912Z,3.73
2023-03-17T10:28:33.571Z,3.37
2023-03-17T10:31:18.395Z,2.90
2023-03-17T10:33:50.517Z,3.87
2023-03-17T10:36:31.359Z,3.80
2023-03-17T10:38:57.809Z,3.33
2023-03-17T10:41:25.305Z,3.53
2023-03-17T10:43:51.924Z,3.53
2023-03-17T10:46:20.105Z,4.70
2023-03-17T10:48:53.130Z,4.03
2023-03-17T10:51:31.822Z,4.50
2023-03-17T10:54:17.650Z,3.67
2023-03-17T10:56:49.187Z,3.27
2023-03-17T10:59:44.539Z,4.77
2023-03-17T11:02:35.876Z,3.47
2023-03-17T11:05:20.744Z,3.83
2023-03-17T11:07:47.786Z,3.93
2023-03-17T11:10:19.282Z,3.93
2023-03-17T11:12:50.369Z,3.73
2023-03-17T11:15:18.328Z,3.73
2023-03-17T11:17:55.913Z,4.20
2023-03-17T11:20:31.872Z,3.73
2023-03-17T11:23:27.621Z,3.50
2023-03-17T11:26:10.287Z,4.37
2023-03-17T11:28:44.573Z,3.17
2023-03-17T11:31:16.191Z,4.17
2023-03-17T11:34:03.056Z,3.90
2023-03-17T11:36:48.971Z,4.60
2023-03-17T11:39:36.444Z,4.17
2023-03-17T11:42:12.217Z,3.90
2023-03-17T11:44:38.617Z,3.43
2023-03-17T11:47:32.295Z,3.63
2023-03-17T11:50:18.832Z,3.20
2023-03-17T11:53:20.599Z,4.00
2023-03-17T11:56:11.412Z,2.83
2023-03-17T11:58:48.359Z,3.50
2023-03-17T12:01:19.509Z,3.87
2023-03-17T12:04:14.612Z,3.83
2023-03-17T12:06:50.598Z,3.83
2023-03-17T12:09:39.548Z,4.73
2023-03-17T12:12:07.802Z,3.80
2023-03-17T12:14:41.382Z,4.27
2023-03-17T12:17:16.308Z,4.33
2023-03-17T12:19:58.956Z,4.10
2023-03-17T12:22:34.684Z,4.30
2023-03-17T12:25:19.560Z,4.53
2023-03-17T12:27:57.027Z,2.90
2023-03-17T12:30:30.081Z,3.97
2023-03-17T12:33:11.209Z,3.80
2023-03-17T12:35:39.032Z,3.90
2023-03-17T12:38:15.925Z,3.87
2023-03-17T12:41:14.251Z,3.83
2023-03-17T12:44:02.893Z,3.90
2023-03-17T12:46:38.698Z,3.27
2023-03-17T12:49:18.059Z,3.90
2023-03-17T12:52:22.752Z,4.20
2023-03-17T12:54:51.968Z,3.33
2023-03-17T12:57:22.537Z,4.70
2023-03-17T12:59:57.995Z,4.00
2023-03-17T13:02:36.465Z,3.70
2023-03-17T13:05:13.404Z,3.63
2023-03-17T13:07:51.252Z,3.30
2023-03-17T13:10:37.190Z,4.23
2023-03-17T13:13:10.530Z,3.37
2023-03-17T13:15:38.190Z,3.83
2023-03-17T13:18:13.851Z,3.70
2023-03-17T13:21:12.074Z,4.23
2023-03-17T13:23:44.596Z,3.70
2023-03-17T13:26:56.417Z,3.50
2023-03-17T13:29:45.086Z,3.93
2023-03-17T13:32:17.427Z,4.50
2023-03-17T13:34:55.952Z,4.10
2023-03-17T13:37:29.819Z,4.37
2023-03-17T13:40:17.325Z,3.87
2023-03-17T13:43:02.119Z,4.20
2023-03-17T13:45:37.449Z,4.13
2023-03-17T13:48:29.098Z,4.30
2023-03-17T13:51:19.057Z,3.87
2023-03-17T13:53:56.612Z,3.10
2023-03-17T13:56:41.140Z,4.27
2023-03-17T13:59:19.192Z,4.20
2023-03-17T14:01:54.541Z,3.80
2023-03-17T14:04:31.003Z,4.03
2023-03-17T14:07:05.460Z,4.80
2023-03-17T14:09:38.620Z,3.97
2023-03-17T14:12:15.388Z,4.10
2023-03-17T14:14:52.668Z,3.80
2023-03-17T14:17:25.253Z,4.20
2023-03-17T14:20:15.291Z,4.33
2023-03-17T14:22:45.723Z,4.43
2023-03-17T14:25:22.622Z,4.10
2023-03-17T14:27:53.405Z,4.83
2023-03-17T14:30:26.628Z,4.27
2023-03-17T14:33:15.153Z,4.80
2023-03-17T14:35:43.450Z,4.00
2023-03-17T14:38:32.593Z,4.70
2023-03-17T14:41:06.623Z,4.47
2023-03-17T14:43:35.279Z,4.30
2023-03-17T14:46:07.719Z,4.30
2023-03-17T14:48:37.713Z,4.20
2023-03-17T14:51:08.597Z,4.50
2023-03-17T14:53:39.610Z,4.37
2023-03-17T14:56:06.742Z,4.80
2023-03-17T14:58:41.579Z,4.10
2023-03-17T15:01:33.762Z,4.37
2023-03-17T15:04:18.979Z,5.47
2023-03-17T15:06:49.290Z,4.57
2023-03-17T15:09:27.268Z,4.83
2023-03-17T15:11:56.585Z,4.83
2023-03-17T15:14:29.860Z,5.13
2023-03-17T15:16:56.610Z,4.33
2023-03-17T15:19:49.260Z,4.93
2023-03-17T15:22:41.453Z,5.63
2023-03-17T15:25:17.606Z,4.70
2023-03-17T15:27:45.627Z,4.43
2023-03-17T15:30:13.744Z,5.17
2023-03-17T15:32:40.551Z,5.07
2023-03-17T15:35:08.437Z,5.90
2023-03-17T15:37:35.526Z,5.23
2023-03-17T15:40:03.335Z,5.80
2023-03-17T15:42:35.772Z,5.73
2023-03-17T15:45:03.695Z,5.37
2023-03-17T15:47:33.927Z,6.20
2023-03-17T15:50:12.244Z,5.90
2023-03-17T15:52:38.772Z,5.47
2023-03-17T15:55:23.132Z,5.27
2023-03-17T15:57:55.042Z,5.77
2023-03-17T16:00:23.643Z,6.80
2023-03-17T16:02:54.706Z,5.93
2023-03-17T16:05:27.129Z,6.10
2023-03-17T16:07:54.208Z,5.80
2023-03-17T16:10:24.261Z,6.00
2023-03-17T16:12:51.107Z,5.60
2023-03-17T16:15:23.475Z,5.80
2023-03-17T16:17:54.009Z,5.80
2023-03-17T16:20:22.632Z,6.13
2023-03-17T16:22:49.610Z,5.60
2023-03-17T16:25:24.923Z,6.07
2023-03-17T16:27:52.673Z,5.33
2023-03-17T16:30:21.947Z,6.50
2023-03-17T16:32:49.276Z,6.10
2023-03-17T16:35:21.805Z,5.73
2023-03-17T16:37:51.841Z,5.70
2023-03-17T16:40:33.679Z,5.70
2023-03-17T16:43:01.382Z,5.67
2023-03-17T16:45:32.960Z,6.53
2023-03-17T16:48:04.117Z,6.93
2023-03-17T16:50:33.254Z,6.17
2023-03-17T16:53:00.483Z,6.10
2023-03-17T16:55:29.028Z,5.73
2023-03-17T16:57:59.053Z,5.60
2023-03-17T17:00:28.607Z,6.73
2023-03-17T17:02:56.320Z,5.93
2023-03-17T17:05:29.685Z,6.63
2023-03-17T17:07:57.496Z,4.97
2023-03-17T17:10:26.012Z,5.50
2023-03-17T17:12:52.941Z,4.80
2023-03-17T17:15:21.776Z,5.67
2023-03-17T17:17:51.778Z,5.27
2023-03-17T17:20:31.119Z,5.60
2023-03-17T17:22:59.440Z,5.37
2023-03-17T17:25:26.260Z,6.20
2023-03-17T17:27:53.854Z,4.87
2023-03-17T17:30:24.387Z,5.37
2023-03-17T17:32:51.859Z,4.43
2023-03-17T17:35:18.756Z,5.27
2023-03-17T17:37:45.469Z,5.00
2023-03-17T17:40:15.962Z,4.93
2023-03-17T17:42:43.532Z,4.43
2023-03-17T17:45:10.349Z,4.50
2023-03-17T17:47:36.829Z,4.30
2023-03-17T17:50:04.637Z,4.47
2023-03-17T17:52:31.266Z,5.30
2023-03-17T17:54:57.749Z,4.40
2023-03-17T17:57:25.145Z,5.73
2023-03-17T17:59:51.638Z,4.70
2023-03-17T18:02:18.092Z,4.17
2023-03-17T18:04:44.549Z,5.13
2023-03-17T18:07:11.134Z,5.07
2023-03-17T18:09:37.660Z,4.60
2023-03-17T18:12:04.856Z,4.20
2023-03-17T18:14:31.587Z,5.50
2023-03-17T18:16:58.095Z,5.03
2023-03-17T18:19:26.169Z,5.97
2023-03-17T18:21:52.602Z,4.93
2023-03-17T18:24:19.532Z,5.50
2023-03-17T18:26:46.059Z,4.97
2023-03-17T18:29:12.546Z,4.93
2023-03-17T18:31:46.209Z,5.20
2023-03-17T18:34:15.189Z,5.43
2023-03-17T18:36:41.933Z,5.10
2023-03-17T18:39:08.928Z,5.77
2023-03-17T18:41:35.761Z,6.90
2023-03-17T18:44:02.551Z,8.07
2023-03-17T18:46:29.039Z,8.80
2023-03-17T18:48:55.630Z,7.47
2023-03-17T18:51:22.079Z,7.03
2023-03-17T18:53:48.610Z,7.10
2023-03-17T18:56:15.104Z,8.27
2023-03-17T18:58:41.693Z,6.30
2023-03-17T19:01:08.779Z,6.73
2023-03-17T19:03:35.401Z,6.47
2023-03-17T19:06:13.810Z,7.47
2023-03-17T19:08:40.670Z,7.67
2023-03-17T19:11:08.910Z,5.73
2023-03-17T19:13:36.672Z,7.70
2023-03-17T19:16:05.413Z,4.70
2023-03-17T19:18:31.865Z,4.53
2023-03-17T19:20:58.557Z,4.03
2023-03-17T19:23:25.184Z,3.40
2023-03-17T19:25:52.087Z,2.80
2023-03-17T19:28:19.056Z,3.20
2023-03-17T19:30:46.567Z,3.70
2023-03-17T19:33:14.762Z,2.90
2023-03-17T19:35:44.221Z,4.13
2023-03-17T19:38:11.964Z,4.07
2023-03-17T19:40:38.974Z,4.17
2023-03-17T19:43:06.319Z,2.87
2023-03-17T19:45:33.373Z,3.07
2023-03-17T19:47:59.887Z,2.20
2023-03-17T19:50:26.738Z,3.03
2023-03-17T19:52:53.722Z,1.80
2023-03-17T19:55:21.290Z,2.60
2023-03-17T19:57:48.223Z,2.90
2023-03-17T20:00:15.222Z,3.23
2023-03-17T20:02:41.783Z,3.93
2023-03-17T20:05:08.620Z,3.10
2023-03-17T20:07:35.788Z,4.27
2023-03-17T20:10:02.323Z,2.77
2023-03-17T20:12:33.287Z,4.47
2023-03-17T20:15:01.074Z,2.40
2023-03-17T20:17:27.864Z,3.30
2023-03-17T20:19:54.399Z,3.33
2023-03-17T20:22:21.153Z,3.87
2023-03-17T20:24:47.834Z,2.50
2023-03-17T20:27:17.460Z,3.20
2023-03-17T20:29:44.686Z,3.17
2023-03-17T20:32:12.097Z,3.20
2023-03-17T20:34:38.551Z,3.33
2023-03-17T20:37:05.243Z,2.77
2023-03-17T20:39:32.421Z,3.70
2023-03-17T20:41:59.011Z,4.00
2023-03-17T20:44:25.516Z,3.20
2023-03-17T20:46:53.538Z,2.63
2023-03-17T20:49:21.052Z,3.10
2023-03-17T20:51:48.067Z,2.97
2023-03-17T20:54:14.501Z,3.30
2023-03-17T20:56:41.178Z,3.80
2023-03-17T20:59:09.616Z,3.67
2023-03-17T21:01:38.458Z,4.47
2023-03-17T21:04:08.642Z,3.40
2023-03-17T21:06:36.851Z,3.60
2023-03-17T21:09:04.640Z,2.90
2023-03-17T21:11:31.178Z,3.00
2023-03-17T21:13:57.896Z,3.33
2023-03-17T21:16:27.770Z,3.20
2023-03-17T21:18:54.726Z,4.07
2023-03-17T21:21:21.956Z,3.27
2023-03-17T21:23:49.200Z,3.50
2023-03-17T21:26:15.744Z,3.70
2023-03-17T21:28:42.778Z,3.30
2023-03-17T21:31:10.752Z,2.90
2023-03-17T21:33:37.433Z,3.87
2023-03-17T21:36:04.794Z,3.13
2023-03-17T21:38:32.120Z,3.60
2023-03-17T21:40:58.961Z,3.80
2023-03-17T21:43:25.446Z,4.13
2023-03-17T21:45:52.243Z,3.27
2023-03-17T21:48:18.852Z,2.90
2023-03-17T21:50:45.297Z,3.80
2023-03-17T21:53:14.737Z,3.30
2023-03-17T21:55:41.545Z,4.70
2023-03-17T21:58:08.665Z,3.30
2023-03-17T22:00:44.806Z,4.57
2023-03-17T22:03:12.234Z,3.37
2023-03-17T22:05:38.734Z,3.57
2023-03-17T22:08:05.602Z,3.30
2023-03-17T22:10:32.332Z,3.83
2023-03-17T22:12:58.970Z,3.00
2023-03-17T22:15:25.465Z,3.60
2023-03-17T22:17:53.176Z,3.77
2023-03-17T22:20:19.744Z,4.27
2023-03-17T22:22:46.231Z,4.77
2023-03-17T22:25:12.710Z,4.20
2023-03-17T22:27:39.230Z,3.90
2023-03-17T22:30:06.439Z,3.87
2023-03-17T22:32:33.084Z,4.23
2023-03-17T22:35:00.141Z,3.67
2023-03-17T22:37:27.912Z,3.00
2023-03-17T22:39:54.433Z,4.43
2023-03-17T22:42:21.071Z,4.30
2023-03-17T22:44:47.576Z,5.40
2023-03-17T22:47:14.036Z,4.67
2023-03-17T22:49:40.484Z,5.27
2023-03-17T22:52:07.047Z,4.07
2023-03-17T22:54:33.547Z,3.93
2023-03-17T22:56:59.986Z,4.90
2023-03-17T22:59:26.713Z,5.00
2023-03-17T23:01:53.173Z,5.57
2023-03-17T23:04:20.065Z,5.60
2023-03-17T23:06:46.552Z,5.47
2023-03-17T23:09:13.050Z,4.90
2023-03-17T23:11:40.421Z,4.77
2023-03-17T23:14:06.974Z,4.73
2023-03-17T23:16:33.632Z,4.40
2023-03-17T23:19:00.175Z,4.77
2023-03-17T23:21:36.336Z,3.83
2023-03-17T23:24:03.927Z,5.33
2023-03-17T23:26:31.979Z,5.30
2023-03-17T23:28:58.541Z,4.80
2023-03-17T23:31:25.581Z,4.47
2023-03-17T23:33:52.644Z,4.30
2023-03-17T23:36:19.644Z,4.83
2023-03-17T23:38:46.244Z,5.10
2023-03-17T23:41:14.417Z,5.10
2023-03-17T23:43:41.672Z,7.47
2023-03-17T23:46:08.346Z,5.80
2023-03-17T23:48:34.914Z,6.70
2023-03-17T23:51:01.642Z,6.10
2023-03-17T23:53:28.431Z,5.13
2023-03-17T23:55:55.327Z,7.03
2023-03-17T23:58:22.502Z,5.90
